sensor_id;sensor_type;location;lat;lon;timestamp;pressure;altitude;pressure_sealevel;temperature
64960;BMP180;51487;52.266;10.542;2022-10-31T00:02:22;100989.00;;;13.40
64960;BMP180;51487;52.266;10.542;2022-10-31T00:04:48;100987.00;;;13.40
64960;BMP180;51487;52.266;10.542;2022-10-31T00:07:13;100990.00;;;13.30
64960;BMP180;51487;52.266;10.542;2022-10-31T00:09:39;100988.00;;;13.30
64960;BMP180;51487;52.266;10.542;2022-10-31T00:12:04;100994.00;;;13.20
64960;BMP180;51487;52.266;10.542;2022-10-31T00:14:30;100992.00;;;13.20
64960;BMP180;51487;52.266;10.542;2022-10-31T00:16:55;100992.00;;;13.20
64960;BMP180;51487;52.266;10.542;2022-10-31T00:19:21;100998.00;;;13.10
64960;BMP180;51487;52.266;10.542;2022-10-31T00:21:46;101001.00;;;13.10
64960;BMP180;51487;52.266;10.542;2022-10-31T00:24:12;101003.00;;;13.10
64960;BMP180;51487;52.266;10.542;2022-10-31T00:26:38;100997.00;;;13.00
64960;BMP180;51487;52.266;10.542;2022-10-31T00:29:03;101002.00;;;13.00
64960;BMP180;51487;52.266;10.542;2022-10-31T00:31:29;101000.00;;;13.00
64960;BMP180;51487;52.266;10.542;2022-10-31T00:33:55;101003.00;;;13.00
64960;BMP180;51487;52.266;10.542;2022-10-31T00:36:22;101011.00;;;13.00
64960;BMP180;51487;52.266;10.542;2022-10-31T00:38:48;101013.00;;;12.90
64960;BMP180;51487;52.266;10.542;2022-10-31T00:41:15;101016.00;;;12.90
64960;BMP180;51487;52.266;10.542;2022-10-31T00:43:42;101017.00;;;12.80
64960;BMP180;51487;52.266;10.542;2022-10-31T00:46:09;101011.00;;;12.80
64960;BMP180;51487;52.266;10.542;2022-10-31T00:48:35;101022.00;;;12.70
64960;BMP180;51487;52.266;10.542;2022-10-31T00:51:00;101016.00;;;12.70
64960;BMP180;51487;52.266;10.542;2022-10-31T00:53:26;101021.00;;;12.70
64960;BMP180;51487;52.266;10.542;2022-10-31T00:55:51;101013.00;;;12.70
64960;BMP180;51487;52.266;10.542;2022-10-31T00:58:17;101023.00;;;12.60
64960;BMP180;51487;52.266;10.542;2022-10-31T01:00:42;101028.00;;;12.60
64960;BMP180;51487;52.266;10.542;2022-10-31T01:03:08;101027.00;;;12.60
64960;BMP180;51487;52.266;10.542;2022-10-31T01:05:34;101026.00;;;12.60
64960;BMP180;51487;52.266;10.542;2022-10-31T01:07:59;101031.00;;;12.60
64960;BMP180;51487;52.266;10.542;2022-10-31T01:10:25;101039.00;;;12.50
64960;BMP180;51487;52.266;10.542;2022-10-31T01:12:50;101030.00;;;12.40
64960;BMP180;51487;52.266;10.542;2022-10-31T01:15:22;101030.00;;;12.50
64960;BMP180;51487;52.266;10.542;2022-10-31T01:17:47;101032.00;;;12.50
64960;BMP180;51487;52.266;10.542;2022-10-31T01:20:14;101040.00;;;12.40
64960;BMP180;51487;52.266;10.542;2022-10-31T01:22:41;101039.00;;;12.40
64960;BMP180;51487;52.266;10.542;2022-10-31T01:25:08;101037.00;;;12.40
64960;BMP180;51487;52.266;10.542;2022-10-31T01:27:34;101029.00;;;12.40
64960;BMP180;51487;52.266;10.542;2022-10-31T01:30:00;101035.00;;;12.40
64960;BMP180;51487;52.266;10.542;2022-10-31T01:32:26;101042.00;;;12.40
64960;BMP180;51487;52.266;10.542;2022-10-31T01:34:54;101044.00;;;12.40
64960;BMP180;51487;52.266;10.542;2022-10-31T01:37:20;101049.00;;;12.40
64960;BMP180;51487;52.266;10.542;2022-10-31T01:39:48;101044.00;;;12.40
64960;BMP180;51487;52.266;10.542;2022-10-31T01:42:19;101048.00;;;12.40
64960;BMP180;51487;52.266;10.542;2022-10-31T01:45:00;101047.00;;;12.50
64960;BMP180;51487;52.266;10.542;2022-10-31T01:47:48;101057.00;;;12.50
64960;BMP180;51487;52.266;10.542;2022-10-31T01:50:26;101054.00;;;12.60
64960;BMP180;51487;52.266;10.542;2022-10-31T01:52:56;101047.00;;;12.70
64960;BMP180;51487;52.266;10.542;2022-10-31T01:55:30;101045.00;;;12.70
64960;BMP180;51487;52.266;10.542;2022-10-31T01:58:03;101055.00;;;12.80
64960;BMP180;51487;52.266;10.542;2022-10-31T02:00:31;101050.00;;;12.90
64960;BMP180;51487;52.266;10.542;2022-10-31T02:02:57;101053.00;;;12.90
64960;BMP180;51487;52.266;10.542;2022-10-31T02:05:27;101057.00;;;12.90
64960;BMP180;51487;52.266;10.542;2022-10-31T02:07:58;101065.00;;;12.90
64960;BMP180;51487;52.266;10.542;2022-10-31T02:10:29;101060.00;;;12.90
64960;BMP180;51487;52.266;10.542;2022-10-31T02:12:59;101063.00;;;12.90
64960;BMP180;51487;52.266;10.542;2022-10-31T02:15:28;101063.00;;;12.90
64960;BMP180;51487;52.266;10.542;2022-10-31T02:17:55;101067.00;;;12.90
64960;BMP180;51487;52.266;10.542;2022-10-31T02:20:24;101072.00;;;13.00
64960;BMP180;51487;52.266;10.542;2022-10-31T02:37:53;101083.00;;;13.00
64960;BMP180;51487;52.266;10.542;2022-10-31T02:47:17;101093.00;;;13.10
64960;BMP180;51487;52.266;10.542;2022-10-31T02:52:27;101101.00;;;13.40
64960;BMP180;51487;52.266;10.542;2022-10-31T02:54:54;101091.00;;;13.40
64960;BMP180;51487;52.266;10.542;2022-10-31T02:57:25;101090.00;;;13.50
64960;BMP180;51487;52.266;10.542;2022-10-31T03:00:02;101091.00;;;13.50
64960;BMP180;51487;52.266;10.542;2022-10-31T03:03:03;101089.00;;;13.50
64960;BMP180;51487;52.266;10.542;2022-10-31T03:06:08;101094.00;;;13.60
64960;BMP180;51487;52.266;10.542;2022-10-31T03:09:00;101092.00;;;13.70
64960;BMP180;51487;52.266;10.542;2022-10-31T03:12:14;101093.00;;;13.80
64960;BMP180;51487;52.266;10.542;2022-10-31T03:20:36;101101.00;;;14.00
64960;BMP180;51487;52.266;10.542;2022-10-31T03:23:08;101107.00;;;14.10
64960;BMP180;51487;52.266;10.542;2022-10-31T03:25:37;101101.00;;;14.10
64960;BMP180;51487;52.266;10.542;2022-10-31T03:28:05;101101.00;;;14.20
64960;BMP180;51487;52.266;10.542;2022-10-31T03:30:33;101104.00;;;14.30
64960;BMP180;51487;52.266;10.542;2022-10-31T03:33:06;101108.00;;;14.10
64960;BMP180;51487;52.266;10.542;2022-10-31T03:35:35;101111.00;;;14.10
64960;BMP180;51487;52.266;10.542;2022-10-31T03:38:03;101120.00;;;14.10
64960;BMP180;51487;52.266;10.542;2022-10-31T03:40:31;101110.00;;;14.10
64960;BMP180;51487;52.266;10.542;2022-10-31T03:43:03;101113.00;;;14.00
64960;BMP180;51487;52.266;10.542;2022-10-31T03:45:37;101114.00;;;14.00
64960;BMP180;51487;52.266;10.542;2022-10-31T03:48:07;101113.00;;;13.90
64960;BMP180;51487;52.266;10.542;2022-10-31T03:50:40;101121.00;;;13.80
64960;BMP180;51487;52.266;10.542;2022-10-31T03:53:34;101119.00;;;13.70
64960;BMP180;51487;52.266;10.542;2022-10-31T03:56:18;101112.00;;;13.60
64960;BMP180;51487;52.266;10.542;2022-10-31T04:01:26;101123.00;;;13.50
64960;BMP180;51487;52.266;10.542;2022-10-31T04:03:56;101117.00;;;13.50
64960;BMP180;51487;52.266;10.542;2022-10-31T04:06:24;101124.00;;;13.50
64960;BMP180;51487;52.266;10.542;2022-10-31T04:08:58;101125.00;;;13.40
64960;BMP180;51487;52.266;10.542;2022-10-31T04:11:31;101130.00;;;13.40
64960;BMP180;51487;52.266;10.542;2022-10-31T04:14:01;101130.00;;;13.40
64960;BMP180;51487;52.266;10.542;2022-10-31T04:16:29;101128.00;;;13.40
64960;BMP180;51487;52.266;10.542;2022-10-31T04:18:55;101137.00;;;13.40
64960;BMP180;51487;52.266;10.542;2022-10-31T04:21:26;101132.00;;;13.40
64960;BMP180;51487;52.266;10.542;2022-10-31T04:23:53;101145.00;;;13.40
64960;BMP180;51487;52.266;10.542;2022-10-31T04:26:19;101140.00;;;13.40
64960;BMP180;51487;52.266;10.542;2022-10-31T04:28:45;101150.00;;;13.40
64960;BMP180;51487;52.266;10.542;2022-10-31T04:31:11;101143.00;;;13.40
64960;BMP180;51487;52.266;10.542;2022-10-31T04:33:37;101148.00;;;13.40
64960;BMP180;51487;52.266;10.542;2022-10-31T04:36:03;101150.00;;;13.40
64960;BMP180;51487;52.266;10.542;2022-10-31T04:38:29;101148.00;;;13.40
64960;BMP180;51487;52.266;10.542;2022-10-31T04:40:55;101154.00;;;13.40
64960;BMP180;51487;52.266;10.542;2022-10-31T04:43:21;101144.00;;;13.30
64960;BMP180;51487;52.266;10.542;2022-10-31T04:45:47;101148.00;;;13.30
64960;BMP180;51487;52.266;10.542;2022-10-31T04:48:12;101151.00;;;13.20
64960;BMP180;51487;52.266;10.542;2022-10-31T04:50:38;101154.00;;;13.20
64960;BMP180;51487;52.266;10.542;2022-10-31T04:53:03;101161.00;;;13.30
64960;BMP180;51487;52.266;10.542;2022-10-31T04:55:29;101152.00;;;13.30
64960;BMP180;51487;52.266;10.542;2022-10-31T04:57:55;101147.00;;;13.30
64960;BMP180;51487;52.266;10.542;2022-10-31T05:00:22;101150.00;;;13.30
64960;BMP180;51487;52.266;10.542;2022-10-31T05:02:49;101164.00;;;13.30
64960;BMP180;51487;52.266;10.542;2022-10-31T05:05:17;101160.00;;;13.30
64960;BMP180;51487;52.266;10.542;2022-10-31T05:07:46;101150.00;;;13.20
64960;BMP180;51487;52.266;10.542;2022-10-31T05:10:15;101152.00;;;13.20
64960;BMP180;51487;52.266;10.542;2022-10-31T05:12:50;101154.00;;;13.20
64960;BMP180;51487;52.266;10.542;2022-10-31T05:15:18;101151.00;;;13.10
64960;BMP180;51487;52.266;10.542;2022-10-31T05:17:45;101149.00;;;13.10
64960;BMP180;51487;52.266;10.542;2022-10-31T05:20:13;101152.00;;;13.10
64960;BMP180;51487;52.266;10.542;2022-10-31T05:22:47;101153.00;;;13.10
64960;BMP180;51487;52.266;10.542;2022-10-31T05:25:14;101143.00;;;13.10
64960;BMP180;51487;52.266;10.542;2022-10-31T05:27:42;101155.00;;;13.10
64960;BMP180;51487;52.266;10.542;2022-10-31T05:30:11;101154.00;;;13.10
64960;BMP180;51487;52.266;10.542;2022-10-31T05:32:48;101157.00;;;13.00
64960;BMP180;51487;52.266;10.542;2022-10-31T05:35:20;101166.00;;;13.00
64960;BMP180;51487;52.266;10.542;2022-10-31T05:37:47;101156.00;;;12.90
64960;BMP180;51487;52.266;10.542;2022-10-31T05:40:14;101162.00;;;12.90
64960;BMP180;51487;52.266;10.542;2022-10-31T05:42:42;101152.00;;;12.90
64960;BMP180;51487;52.266;10.542;2022-10-31T05:45:10;101155.00;;;12.90
64960;BMP180;51487;52.266;10.542;2022-10-31T05:47:41;101154.00;;;12.80
64960;BMP180;51487;52.266;10.542;2022-10-31T05:50:08;101153.00;;;12.70
64960;BMP180;51487;52.266;10.542;2022-10-31T05:52:35;101154.00;;;12.70
64960;BMP180;51487;52.266;10.542;2022-10-31T05:55:00;101151.00;;;12.70
64960;BMP180;51487;52.266;10.542;2022-10-31T05:57:26;101144.00;;;12.70
64960;BMP180;51487;52.266;10.542;2022-10-31T05:59:53;101142.00;;;12.70
64960;BMP180;51487;52.266;10.542;2022-10-31T06:02:20;101150.00;;;12.70
64960;BMP180;51487;52.266;10.542;2022-10-31T06:04:45;101156.00;;;12.70
64960;BMP180;51487;52.266;10.542;2022-10-31T06:07:11;101155.00;;;12.60
64960;BMP180;51487;52.266;10.542;2022-10-31T06:09:36;101164.00;;;12.60
64960;BMP180;51487;52.266;10.542;2022-10-31T06:12:02;101164.00;;;12.60
64960;BMP180;51487;52.266;10.542;2022-10-31T06:14:28;101160.00;;;12.50
64960;BMP180;51487;52.266;10.542;2022-10-31T06:16:56;101161.00;;;12.60
64960;BMP180;51487;52.266;10.542;2022-10-31T06:19:22;101164.00;;;12.50
64960;BMP180;51487;52.266;10.542;2022-10-31T06:21:47;101163.00;;;12.50
64960;BMP180;51487;52.266;10.542;2022-10-31T06:24:13;101173.00;;;12.40
64960;BMP180;51487;52.266;10.542;2022-10-31T06:26:40;101172.00;;;12.30
64960;BMP180;51487;52.266;10.542;2022-10-31T06:29:05;101173.00;;;12.30
64960;BMP180;51487;52.266;10.542;2022-10-31T06:31:31;101175.00;;;12.30
64960;BMP180;51487;52.266;10.542;2022-10-31T06:33:57;101184.00;;;12.20
64960;BMP180;51487;52.266;10.542;2022-10-31T06:36:22;101178.00;;;12.20
64960;BMP180;51487;52.266;10.542;2022-10-31T06:38:48;101178.00;;;12.30
64960;BMP180;51487;52.266;10.542;2022-10-31T06:41:13;101183.00;;;12.30
64960;BMP180;51487;52.266;10.542;2022-10-31T06:43:39;101191.00;;;12.20
64960;BMP180;51487;52.266;10.542;2022-10-31T06:46:05;101202.00;;;12.20
64960;BMP180;51487;52.266;10.542;2022-10-31T06:48:31;101191.00;;;12.10
64960;BMP180;51487;52.266;10.542;2022-10-31T06:51:00;101194.00;;;12.20
64960;BMP180;51487;52.266;10.542;2022-10-31T06:53:27;101188.00;;;12.20
64960;BMP180;51487;52.266;10.542;2022-10-31T06:55:55;101201.00;;;12.20
64960;BMP180;51487;52.266;10.542;2022-10-31T06:58:21;101200.00;;;12.20
64960;BMP180;51487;52.266;10.542;2022-10-31T07:00:47;101202.00;;;12.30
64960;BMP180;51487;52.266;10.542;2022-10-31T07:03:14;101211.00;;;12.40
64960;BMP180;51487;52.266;10.542;2022-10-31T07:05:43;101204.00;;;12.50
64960;BMP180;51487;52.266;10.542;2022-10-31T07:08:13;101203.00;;;12.60
64960;BMP180;51487;52.266;10.542;2022-10-31T07:10:40;101203.00;;;12.80
64960;BMP180;51487;52.266;10.542;2022-10-31T07:13:12;101198.00;;;12.90
64960;BMP180;51487;52.266;10.542;2022-10-31T07:15:41;101203.00;;;13.00
64960;BMP180;51487;52.266;10.542;2022-10-31T07:18:08;101203.00;;;13.10
64960;BMP180;51487;52.266;10.542;2022-10-31T07:20:35;101209.00;;;13.20
64960;BMP180;51487;52.266;10.542;2022-10-31T07:23:02;101209.00;;;13.30
64960;BMP180;51487;52.266;10.542;2022-10-31T07:25:27;101210.00;;;13.40
64960;BMP180;51487;52.266;10.542;2022-10-31T07:27:53;101203.00;;;13.50
64960;BMP180;51487;52.266;10.542;2022-10-31T07:30:19;101204.00;;;13.60
64960;BMP180;51487;52.266;10.542;2022-10-31T07:32:49;101204.00;;;13.70
64960;BMP180;51487;52.266;10.542;2022-10-31T07:35:18;101201.00;;;13.70
64960;BMP180;51487;52.266;10.542;2022-10-31T07:37:46;101209.00;;;13.80
64960;BMP180;51487;52.266;10.542;2022-10-31T07:40:12;101204.00;;;13.90
64960;BMP180;51487;52.266;10.542;2022-10-31T07:42:40;101202.00;;;13.90
64960;BMP180;51487;52.266;10.542;2022-10-31T07:45:11;101204.00;;;14.00
64960;BMP180;51487;52.266;10.542;2022-10-31T07:47:45;101207.00;;;14.10
64960;BMP180;51487;52.266;10.542;2022-10-31T07:50:24;101206.00;;;14.20
64960;BMP180;51487;52.266;10.542;2022-10-31T07:55:29;101210.00;;;14.20
64960;BMP180;51487;52.266;10.542;2022-10-31T07:58:00;101208.00;;;14.20
64960;BMP180;51487;52.266;10.542;2022-10-31T08:00:28;101205.00;;;14.20
64960;BMP180;51487;52.266;10.542;2022-10-31T08:03:01;101203.00;;;14.30
64960;BMP180;51487;52.266;10.542;2022-10-31T08:05:32;101204.00;;;14.30
64960;BMP180;51487;52.266;10.542;2022-10-31T08:07:59;101208.00;;;14.40
64960;BMP180;51487;52.266;10.542;2022-10-31T08:10:25;101204.00;;;14.40
64960;BMP180;51487;52.266;10.542;2022-10-31T08:13:00;101198.00;;;14.60
64960;BMP180;51487;52.266;10.542;2022-10-31T08:15:28;101207.00;;;14.50
64960;BMP180;51487;52.266;10.542;2022-10-31T08:17:54;101208.00;;;14.50
64960;BMP180;51487;52.266;10.542;2022-10-31T08:20:20;101212.00;;;14.50
64960;BMP180;51487;52.266;10.542;2022-10-31T08:23:05;101216.00;;;14.50
64960;BMP180;51487;52.266;10.542;2022-10-31T08:25:32;101221.00;;;14.60
64960;BMP180;51487;52.266;10.542;2022-10-31T08:27:59;101222.00;;;14.60
64960;BMP180;51487;52.266;10.542;2022-10-31T08:30:28;101226.00;;;14.60
64960;BMP180;51487;52.266;10.542;2022-10-31T08:33:21;101216.00;;;14.70
64960;BMP180;51487;52.266;10.542;2022-10-31T08:35:46;101216.00;;;14.80
64960;BMP180;51487;52.266;10.542;2022-10-31T08:38:13;101226.00;;;14.80
64960;BMP180;51487;52.266;10.542;2022-10-31T08:40:39;101223.00;;;14.70
64960;BMP180;51487;52.266;10.542;2022-10-31T08:43:08;101212.00;;;14.90
64960;BMP180;51487;52.266;10.542;2022-10-31T08:45:37;101221.00;;;14.80
64960;BMP180;51487;52.266;10.542;2022-10-31T08:48:04;101222.00;;;14.80
64960;BMP180;51487;52.266;10.542;2022-10-31T08:50:34;101207.00;;;15.00
64960;BMP180;51487;52.266;10.542;2022-10-31T08:53:09;101201.00;;;15.10
64960;BMP180;51487;52.266;10.542;2022-10-31T08:55:38;101207.00;;;15.10
64960;BMP180;51487;52.266;10.542;2022-10-31T08:58:13;101204.00;;;15.10
64960;BMP180;51487;52.266;10.542;2022-10-31T09:00:41;101214.00;;;15.20
64960;BMP180;51487;52.266;10.542;2022-10-31T09:03:37;101202.00;;;15.00
64960;BMP180;51487;52.266;10.542;2022-10-31T09:06:03;101201.00;;;15.10
64960;BMP180;51487;52.266;10.542;2022-10-31T09:08:32;101196.00;;;15.10
64960;BMP180;51487;52.266;10.542;2022-10-31T09:10:58;101198.00;;;15.10
64960;BMP180;51487;52.266;10.542;2022-10-31T09:13:24;101195.00;;;15.10
64960;BMP180;51487;52.266;10.542;2022-10-31T09:15:50;101206.00;;;15.10
64960;BMP180;51487;52.266;10.542;2022-10-31T09:18:19;101204.00;;;15.00
64960;BMP180;51487;52.266;10.542;2022-10-31T09:20:47;101206.00;;;15.00
64960;BMP180;51487;52.266;10.542;2022-10-31T09:23:16;101208.00;;;15.00
64960;BMP180;51487;52.266;10.542;2022-10-31T09:25:46;101202.00;;;15.10
64960;BMP180;51487;52.266;10.542;2022-10-31T09:28:15;101205.00;;;15.00
64960;BMP180;51487;52.266;10.542;2022-10-31T09:30:45;101197.00;;;14.90
64960;BMP180;51487;52.266;10.542;2022-10-31T09:33:12;101187.00;;;14.90
64960;BMP180;51487;52.266;10.542;2022-10-31T09:35:39;101191.00;;;14.90
64960;BMP180;51487;52.266;10.542;2022-10-31T09:38:08;101194.00;;;14.90
64960;BMP180;51487;52.266;10.542;2022-10-31T09:40:41;101198.00;;;14.70
64960;BMP180;51487;52.266;10.542;2022-10-31T09:43:27;101197.00;;;14.80
64960;BMP180;51487;52.266;10.542;2022-10-31T09:52:03;101186.00;;;14.70
64960;BMP180;51487;52.266;10.542;2022-10-31T09:54:54;101187.00;;;14.70
64960;BMP180;51487;52.266;10.542;2022-10-31T09:57:28;101186.00;;;14.70
64960;BMP180;51487;52.266;10.542;2022-10-31T09:59:57;101189.00;;;14.90
64960;BMP180;51487;52.266;10.542;2022-10-31T10:02:27;101182.00;;;14.90
64960;BMP180;51487;52.266;10.542;2022-10-31T10:05:04;101183.00;;;14.90
64960;BMP180;51487;52.266;10.542;2022-10-31T10:10:44;101182.00;;;14.90
64960;BMP180;51487;52.266;10.542;2022-10-31T10:16:30;101192.00;;;14.90
64960;BMP180;51487;52.266;10.542;2022-10-31T10:19:12;101184.00;;;14.90
64960;BMP180;51487;52.266;10.542;2022-10-31T10:27:52;101174.00;;;15.10
64960;BMP180;51487;52.266;10.542;2022-10-31T10:30:29;101175.00;;;15.10
64960;BMP180;51487;52.266;10.542;2022-10-31T10:33:05;101176.00;;;15.10
64960;BMP180;51487;52.266;10.542;2022-10-31T10:35:43;101172.00;;;15.20
64960;BMP180;51487;52.266;10.542;2022-10-31T10:40:53;101163.00;;;15.40
64960;BMP180;51487;52.266;10.542;2022-10-31T10:49:19;101156.00;;;15.50
64960;BMP180;51487;52.266;10.542;2022-10-31T10:52:18;101151.00;;;15.50
64960;BMP180;51487;52.266;10.542;2022-10-31T10:55:45;101143.00;;;15.50
64960;BMP180;51487;52.266;10.542;2022-10-31T10:58:35;101139.00;;;15.50
64960;BMP180;51487;52.266;10.542;2022-10-31T11:01:10;101144.00;;;15.50
64960;BMP180;51487;52.266;10.542;2022-10-31T11:03:37;101139.00;;;15.50
64960;BMP180;51487;52.266;10.542;2022-10-31T11:06:04;101134.00;;;15.60
64960;BMP180;51487;52.266;10.542;2022-10-31T11:08:34;101125.00;;;15.70
64960;BMP180;51487;52.266;10.542;2022-10-31T11:13:44;101131.00;;;15.80
64960;BMP180;51487;52.266;10.542;2022-10-31T11:16:12;101138.00;;;15.80
64960;BMP180;51487;52.266;10.542;2022-10-31T11:18:43;101122.00;;;15.90
64960;BMP180;51487;52.266;10.542;2022-10-31T11:21:28;101122.00;;;16.00
64960;BMP180;51487;52.266;10.542;2022-10-31T11:26:37;101116.00;;;16.00
64960;BMP180;51487;52.266;10.542;2022-10-31T11:29:05;101121.00;;;16.10
64960;BMP180;51487;52.266;10.542;2022-10-31T11:31:37;101115.00;;;16.20
64960;BMP180;51487;52.266;10.542;2022-10-31T11:34:06;101113.00;;;16.20
64960;BMP180;51487;52.266;10.542;2022-10-31T11:36:42;101102.00;;;16.30
64960;BMP180;51487;52.266;10.542;2022-10-31T11:39:22;101093.00;;;16.40
64960;BMP180;51487;52.266;10.542;2022-10-31T11:41:50;101093.00;;;16.50
64960;BMP180;51487;52.266;10.542;2022-10-31T11:46:50;101101.00;;;16.50
64960;BMP180;51487;52.266;10.542;2022-10-31T11:49:20;101092.00;;;16.50
64960;BMP180;51487;52.266;10.542;2022-10-31T11:51:52;101092.00;;;16.60
64960;BMP180;51487;52.266;10.542;2022-10-31T11:54:29;101089.00;;;16.60
64960;BMP180;51487;52.266;10.542;2022-10-31T11:56:58;101088.00;;;16.60
64960;BMP180;51487;52.266;10.542;2022-10-31T11:59:27;101090.00;;;16.60
64960;BMP180;51487;52.266;10.542;2022-10-31T12:01:57;101083.00;;;16.60
64960;BMP180;51487;52.266;10.542;2022-10-31T12:04:40;101082.00;;;16.60
64960;BMP180;51487;52.266;10.542;2022-10-31T12:07:08;101080.00;;;16.70
64960;BMP180;51487;52.266;10.542;2022-10-31T12:09:35;101080.00;;;16.70
64960;BMP180;51487;52.266;10.542;2022-10-31T12:12:33;101080.00;;;16.80
64960;BMP180;51487;52.266;10.542;2022-10-31T12:15:21;101079.00;;;16.70
64960;BMP180;51487;52.266;10.542;2022-10-31T12:20:54;101072.00;;;16.70
64960;BMP180;51487;52.266;10.542;2022-10-31T12:23:42;101068.00;;;16.70
64960;BMP180;51487;52.266;10.542;2022-10-31T12:26:34;101071.00;;;16.70
64960;BMP180;51487;52.266;10.542;2022-10-31T12:35:34;101063.00;;;16.90
64960;BMP180;51487;52.266;10.542;2022-10-31T12:38:18;101053.00;;;16.90
64960;BMP180;51487;52.266;10.542;2022-10-31T12:44:15;101053.00;;;16.80
64960;BMP180;51487;52.266;10.542;2022-10-31T12:47:04;101041.00;;;16.90
64960;BMP180;51487;52.266;10.542;2022-10-31T12:58:29;101036.00;;;17.10
64960;BMP180;51487;52.266;10.542;2022-10-31T13:04:20;101020.00;;;17.20
64960;BMP180;51487;52.266;10.542;2022-10-31T13:06:59;101024.00;;;17.30
64960;BMP180;51487;52.266;10.542;2022-10-31T13:09:37;101022.00;;;17.30
64960;BMP180;51487;52.266;10.542;2022-10-31T13:12:10;101014.00;;;17.10
64960;BMP180;51487;52.266;10.542;2022-10-31T13:14:42;101019.00;;;17.20
64960;BMP180;51487;52.266;10.542;2022-10-31T13:17:34;101005.00;;;17.10
64960;BMP180;51487;52.266;10.542;2022-10-31T13:20:28;101006.00;;;17.10
64960;BMP180;51487;52.266;10.542;2022-10-31T13:25:54;101006.00;;;17.20
64960;BMP180;51487;52.266;10.542;2022-10-31T13:28:43;100998.00;;;17.10
64960;BMP180;51487;52.266;10.542;2022-10-31T13:31:12;100994.00;;;17.20
64960;BMP180;51487;52.266;10.542;2022-10-31T13:33:59;100989.00;;;17.20
64960;BMP180;51487;52.266;10.542;2022-10-31T13:42:55;100977.00;;;16.90
64960;BMP180;51487;52.266;10.542;2022-10-31T13:45:26;100982.00;;;16.80
64960;BMP180;51487;52.266;10.542;2022-10-31T13:50:55;100973.00;;;16.80
64960;BMP180;51487;52.266;10.542;2022-10-31T13:56:19;100964.00;;;16.70
64960;BMP180;51487;52.266;10.542;2022-10-31T13:59:17;100965.00;;;16.80
64960;BMP180;51487;52.266;10.542;2022-10-31T14:02:12;100958.00;;;16.70
64960;BMP180;51487;52.266;10.542;2022-10-31T14:04:51;100952.00;;;16.60
64960;BMP180;51487;52.266;10.542;2022-10-31T14:07:22;100955.00;;;16.60
64960;BMP180;51487;52.266;10.542;2022-10-31T14:10:02;100951.00;;;16.50
64960;BMP180;51487;52.266;10.542;2022-10-31T14:12:44;100956.00;;;16.60
64960;BMP180;51487;52.266;10.542;2022-10-31T14:15:20;100953.00;;;16.50
64960;BMP180;51487;52.266;10.542;2022-10-31T14:17:54;100957.00;;;16.40
64960;BMP180;51487;52.266;10.542;2022-10-31T14:22:57;100948.00;;;16.30
64960;BMP180;51487;52.266;10.542;2022-10-31T14:27:56;100939.00;;;16.30
64960;BMP180;51487;52.266;10.542;2022-10-31T14:30:24;100930.00;;;16.30
64960;BMP180;51487;52.266;10.542;2022-10-31T14:33:01;100932.00;;;16.20
64960;BMP180;51487;52.266;10.542;2022-10-31T14:36:17;100927.00;;;16.30
64960;BMP180;51487;52.266;10.542;2022-10-31T14:39:13;100934.00;;;16.20
64960;BMP180;51487;52.266;10.542;2022-10-31T14:44:52;100932.00;;;16.10
64960;BMP180;51487;52.266;10.542;2022-10-31T14:50:58;100929.00;;;16.10
64960;BMP180;51487;52.266;10.542;2022-10-31T14:53:33;100930.00;;;16.00
64960;BMP180;51487;52.266;10.542;2022-10-31T14:56:02;100934.00;;;16.00
64960;BMP180;51487;52.266;10.542;2022-10-31T14:58:43;100925.00;;;16.00
64960;BMP180;51487;52.266;10.542;2022-10-31T15:03:57;100935.00;;;15.90
64960;BMP180;51487;52.266;10.542;2022-10-31T15:06:31;100931.00;;;15.90
64960;BMP180;51487;52.266;10.542;2022-10-31T15:09:31;100927.00;;;15.80
64960;BMP180;51487;52.266;10.542;2022-10-31T15:12:00;100924.00;;;15.70
64960;BMP180;51487;52.266;10.542;2022-10-31T15:14:46;100926.00;;;15.70
64960;BMP180;51487;52.266;10.542;2022-10-31T15:17:12;100913.00;;;15.70
64960;BMP180;51487;52.266;10.542;2022-10-31T15:19:38;100914.00;;;15.70
64960;BMP180;51487;52.266;10.542;2022-10-31T15:22:04;100912.00;;;15.60
64960;BMP180;51487;52.266;10.542;2022-10-31T15:24:35;100919.00;;;15.50
64960;BMP180;51487;52.266;10.542;2022-10-31T15:27:03;100916.00;;;15.50
64960;BMP180;51487;52.266;10.542;2022-10-31T15:29:29;100915.00;;;15.40
64960;BMP180;51487;52.266;10.542;2022-10-31T15:32:19;100913.00;;;15.40
64960;BMP180;51487;52.266;10.542;2022-10-31T15:34:54;100910.00;;;15.40
64960;BMP180;51487;52.266;10.542;2022-10-31T15:37:24;100907.00;;;15.30
64960;BMP180;51487;52.266;10.542;2022-10-31T15:39:51;100905.00;;;15.30
64960;BMP180;51487;52.266;10.542;2022-10-31T15:47:27;100889.00;;;15.30
64960;BMP180;51487;52.266;10.542;2022-10-31T15:49:56;100891.00;;;15.20
64960;BMP180;51487;52.266;10.542;2022-10-31T15:52:41;100877.00;;;15.10
64960;BMP180;51487;52.266;10.542;2022-10-31T15:57:39;100873.00;;;15.10
64960;BMP180;51487;52.266;10.542;2022-10-31T16:02:49;100872.00;;;14.90
64960;BMP180;51487;52.266;10.542;2022-10-31T16:05:34;100872.00;;;14.90
64960;BMP180;51487;52.266;10.542;2022-10-31T16:08:02;100857.00;;;14.80
64960;BMP180;51487;52.266;10.542;2022-10-31T16:10:33;100862.00;;;14.90
64960;BMP180;51487;52.266;10.542;2022-10-31T16:13:02;100860.00;;;14.90
64960;BMP180;51487;52.266;10.542;2022-10-31T16:15:28;100857.00;;;14.90
64960;BMP180;51487;52.266;10.542;2022-10-31T16:17:55;100864.00;;;14.80
64960;BMP180;51487;52.266;10.542;2022-10-31T16:20:27;100864.00;;;14.70
64960;BMP180;51487;52.266;10.542;2022-10-31T16:22:55;100864.00;;;14.70
64960;BMP180;51487;52.266;10.542;2022-10-31T16:25:28;100866.00;;;14.70